sensor_id;sensor_type;location;lat;lon;timestamp;pressure;altitude;pressure_sealevel;temperature;humidity
44457;BME280;30159;49.316;8.558;2023-11-19T00:02:25;100326.63;;;10.01;100.00
44457;BME280;30159;49.316;8.558;2023-11-19T00:04:52;100325.25;;;10.03;100.00
44457;BME280;30159;49.316;8.558;2023-11-19T00:07:18;100318.53;;;10.01;100.00
44457;BME280;30159;49.316;8.558;2023-11-19T00:09:46;100188.81;;;9.18;100.00
44457;BME280;30159;49.316;8.558;2023-11-19T00:12:13;100321.47;;;10.09;100.00
44457;BME280;30159;49.316;8.558;2023-11-19T00:14:40;100306.75;;;9.86;100.00
44457;BME280;30159;49.316;8.558;2023-11-19T00:17:06;100320.97;;;9.97;100.00
44457;BME280;30159;49.316;8.558;2023-11-19T00:19:33;100311.50;;;10.00;100.00
44457;BME280;30159;49.316;8.558;2023-11-19T00:22:00;100293.00;;;9.83;100.00
44457;BME280;30159;49.316;8.558;2023-11-19T00:24:28;100304.59;;;9.83;100.00
44457;BME280;30159;49.316;8.558;2023-11-19T00:26:57;100313.75;;;9.82;100.00
44457;BME280;30159;49.316;8.558;2023-11-19T00:29:23;100306.72;;;9.91;100.00
44457;BME280;30159;49.316;8.558;2023-11-19T00:31:50;100300.25;;;9.92;100.00
44457;BME280;30159;49.316;8.558;2023-11-19T00:34:17;100312.13;;;9.86;100.00
44457;BME280;30159;49.316;8.558;2023-11-19T00:36:47;100308.34;;;9.87;100.00
44457;BME280;30159;49.316;8.558;2023-11-19T00:39:13;100294.88;;;9.87;100.00
44457;BME280;30159;49.316;8.558;2023-11-19T00:41:41;100294.09;;;9.87;100.00
44457;BME280;30159;49.316;8.558;2023-11-19T00:44:09;100271.97;;;9.90;100.00
44457;BME280;30159;49.316;8.558;2023-11-19T00:46:35;100263.63;;;9.91;100.00
44457;BME280;30159;49.316;8.558;2023-11-19T00:49:02;100268.47;;;9.89;100.00
44457;BME280;30159;49.316;8.558;2023-11-19T00:51:29;100295.34;;;10.05;100.00
44457;BME280;30159;49.316;8.558;2023-11-19T00:53:57;100251.28;;;9.80;100.00
44457;BME280;30159;49.316;8.558;2023-11-19T00:56:24;100306.13;;;10.00;100.00
44457;BME280;30159;49.316;8.558;2023-11-19T00:58:51;100294.25;;;10.06;100.00
44457;BME280;30159;49.316;8.558;2023-11-19T01:01:19;100299.34;;;10.12;100.00
44457;BME280;30159;49.316;8.558;2023-11-19T01:03:45;100272.75;;;9.96;100.00
44457;BME280;30159;49.316;8.558;2023-11-19T01:06:12;100304.19;;;10.10;100.00
44457;BME280;30159;49.316;8.558;2023-11-19T01:08:39;100299.59;;;10.11;100.00
44457;BME280;30159;49.316;8.558;2023-11-19T01:11:06;100302.25;;;10.21;100.00
44457;BME280;30159;49.316;8.558;2023-11-19T01:13:33;100244.44;;;9.98;100.00
44457;BME280;30159;49.316;8.558;2023-11-19T01:16:00;100236.06;;;10.00;100.00
44457;BME280;30159;49.316;8.558;2023-11-19T01:18:29;100293.56;;;10.34;100.00
44457;BME280;30159;49.316;8.558;2023-11-19T01:20:55;100282.22;;;10.38;100.00
44457;BME280;30159;49.316;8.558;2023-11-19T01:23:22;100297.34;;;10.33;100.00
44457;BME280;30159;49.316;8.558;2023-11-19T01:25:48;100160.69;;;9.50;100.00
44457;BME280;30159;49.316;8.558;2023-11-19T01:28:15;100282.78;;;10.34;100.00
44457;BME280;30159;49.316;8.558;2023-11-19T01:30:41;100290.81;;;10.45;100.00
44457;BME280;30159;49.316;8.558;2023-11-19T01:33:08;100298.31;;;10.48;100.00
44457;BME280;30159;49.316;8.558;2023-11-19T01:35:36;100294.56;;;10.49;100.00
44457;BME280;30159;49.316;8.558;2023-11-19T01:38:04;100296.50;;;10.38;100.00
44457;BME280;30159;49.316;8.558;2023-11-19T01:40:32;100283.03;;;10.38;100.00
44457;BME280;30159;49.316;8.558;2023-11-19T01:42:59;100159.94;;;9.44;100.00
44457;BME280;30159;49.316;8.558;2023-11-19T01:45:27;100290.13;;;10.19;100.00
44457;BME280;30159;49.316;8.558;2023-11-19T01:47:56;100293.56;;;10.34;100.00
44457;BME280;30159;49.316;8.558;2023-11-19T01:50:23;100288.66;;;10.42;100.00
44457;BME280;30159;49.316;8.558;2023-11-19T01:52:52;100281.06;;;10.49;100.00
44457;BME280;30159;49.316;8.558;2023-11-19T01:55:20;100286.78;;;10.42;100.00
44457;BME280;30159;49.316;8.558;2023-11-19T01:57:47;100145.88;;;9.53;100.00
44457;BME280;30159;49.316;8.558;2023-11-19T02:00:15;100278.69;;;10.42;100.00
44457;BME280;30159;49.316;8.558;2023-11-19T02:02:42;100271.97;;;10.40;100.00
44457;BME280;30159;49.316;8.558;2023-11-19T02:05:10;100160.63;;;9.60;100.00
44457;BME280;30159;49.316;8.558;2023-11-19T02:07:38;100281.28;;;10.52;100.00
44457;BME280;30159;49.316;8.558;2023-11-19T02:10:07;100147.88;;;9.76;100.00
44457;BME280;30159;49.316;8.558;2023-11-19T02:12:38;100262.06;;;10.64;100.00
44457;BME280;30159;49.316;8.558;2023-11-19T02:15:08;100264.44;;;10.71;100.00
44457;BME280;30159;49.316;8.558;2023-11-19T02:17:35;100227.16;;;10.44;100.00
44457;BME280;30159;49.316;8.558;2023-11-19T02:20:03;100270.81;;;10.80;100.00
44457;BME280;30159;49.316;8.558;2023-11-19T02:22:31;100277.28;;;10.79;100.00
44457;BME280;30159;49.316;8.558;2023-11-19T02:25:02;100234.56;;;10.62;100.00
44457;BME280;30159;49.316;8.558;2023-11-19T02:27:43;100269.78;;;10.76;100.00
44457;BME280;30159;49.316;8.558;2023-11-19T02:30:11;100261.69;;;10.76;100.00
44457;BME280;30159;49.316;8.558;2023-11-19T02:32:40;100242.50;;;10.78;100.00
44457;BME280;30159;49.316;8.558;2023-11-19T02:35:07;100217.72;;;10.75;100.00
44457;BME280;30159;49.316;8.558;2023-11-19T02:37:34;100209.16;;;10.68;100.00
44457;BME280;30159;49.316;8.558;2023-11-19T02:40:01;100213.44;;;10.69;100.00
44457;BME280;30159;49.316;8.558;2023-11-19T02:42:28;100181.78;;;10.56;100.00
44457;BME280;30159;49.316;8.558;2023-11-19T02:44:56;100210.75;;;10.69;100.00
44457;BME280;30159;49.316;8.558;2023-11-19T02:47:23;100211.28;;;10.71;100.00
44457;BME280;30159;49.316;8.558;2023-11-19T02:49:50;100217.56;;;10.62;100.00
44457;BME280;30159;49.316;8.558;2023-11-19T02:52:18;100225.94;;;10.60;100.00
44457;BME280;30159;49.316;8.558;2023-11-19T02:54:45;100229.41;;;10.66;100.00
44457;BME280;30159;49.316;8.558;2023-11-19T02:57:12;100238.44;;;10.80;100.00
44457;BME280;30159;49.316;8.558;2023-11-19T02:59:39;100109.47;;;9.95;100.00
44457;BME280;30159;49.316;8.558;2023-11-19T03:02:09;100240.34;;;10.80;100.00
44457;BME280;30159;49.316;8.558;2023-11-19T03:04:37;100236.88;;;10.74;100.00
44457;BME280;30159;49.316;8.558;2023-11-19T03:07:05;100229.56;;;10.80;100.00
44457;BME280;30159;49.316;8.558;2023-11-19T03:09:32;100219.75;;;10.89;100.00
44457;BME280;30159;49.316;8.558;2023-11-19T03:11:59;100213.19;;;10.95;100.00
44457;BME280;30159;49.316;8.558;2023-11-19T03:14:25;100208.38;;;10.92;100.00
44457;BME280;30159;49.316;8.558;2023-11-19T03:16:52;100206.53;;;10.87;100.00
44457;BME280;30159;49.316;8.558;2023-11-19T03:19:20;100200.81;;;10.94;100.00
44457;BME280;30159;49.316;8.558;2023-11-19T03:21:47;100207.28;;;10.93;100.00
44457;BME280;30159;49.316;8.558;2023-11-19T03:24:13;100206.72;;;10.96;100.00
44457;BME280;30159;49.316;8.558;2023-11-19T03:26:40;100198.56;;;11.01;100.00
44457;BME280;30159;49.316;8.558;2023-11-19T03:29:08;100093.03;;;10.30;100.00
44457;BME280;30159;49.316;8.558;2023-11-19T03:31:34;100197.44;;;11.07;100.00
44457;BME280;30159;49.316;8.558;2023-11-19T03:34:01;100182.75;;;11.13;100.00
44457;BME280;30159;49.316;8.558;2023-11-19T03:36:33;100186.56;;;11.12;100.00
44457;BME280;30159;49.316;8.558;2023-11-19T03:39:00;100188.81;;;11.05;100.00
44457;BME280;30159;49.316;8.558;2023-11-19T03:41:26;100193.22;;;10.96;100.00
44457;BME280;30159;49.316;8.558;2023-11-19T03:43:53;100089.13;;;10.42;100.00
44457;BME280;30159;49.316;8.558;2023-11-19T03:46:20;100185.81;;;11.07;100.00
44457;BME280;30159;49.316;8.558;2023-11-19T03:48:47;100181.00;;;11.04;100.00
44457;BME280;30159;49.316;8.558;2023-11-19T03:51:14;100189.81;;;11.09;100.00
44457;BME280;30159;49.316;8.558;2023-11-19T03:53:43;100183.88;;;11.12;100.00
44457;BME280;30159;49.316;8.558;2023-11-19T03:56:09;100176.16;;;11.25;100.00
44457;BME280;30159;49.316;8.558;2023-11-19T03:58:37;100179.88;;;11.29;100.00
44457;BME280;30159;49.316;8.558;2023-11-19T04:01:04;100173.22;;;11.21;100.00
44457;BME280;30159;49.316;8.558;2023-11-19T04:03:31;100175.75;;;11.12;100.00
44457;BME280;30159;49.316;8.558;2023-11-19T04:05:58;100035.34;;;10.31;100.00
44457;BME280;30159;49.316;8.558;2023-11-19T04:08:25;100148.78;;;11.12;100.00
44457;BME280;30159;49.316;8.558;2023-11-19T04:10:53;100147.88;;;10.98;100.00
44457;BME280;30159;49.316;8.558;2023-11-19T04:13:19;100168.41;;;11.18;100.00
44457;BME280;30159;49.316;8.558;2023-11-19T04:15:46;100161.63;;;11.21;100.00
44457;BME280;30159;49.316;8.558;2023-11-19T04:18:12;100162.66;;;11.25;100.00
44457;BME280;30159;49.316;8.558;2023-11-19T04:20:39;100159.94;;;11.25;100.00
44457;BME280;30159;49.316;8.558;2023-11-19T04:23:07;100160.47;;;11.27;100.00
44457;BME280;30159;49.316;8.558;2023-11-19T04:25:35;100161.84;;;11.24;100.00
44457;BME280;30159;49.316;8.558;2023-11-19T04:28:03;100173.44;;;11.25;100.00
44457;BME280;30159;49.316;8.558;2023-11-19T04:30:29;100178.78;;;11.30;100.00
44457;BME280;30159;49.316;8.558;2023-11-19T04:32:57;100186.25;;;11.38;100.00
44457;BME280;30159;49.316;8.558;2023-11-19T04:35:23;100176.44;;;11.42;100.00
44457;BME280;30159;49.316;8.558;2023-11-19T04:37:51;100179.38;;;11.46;100.00
44457;BME280;30159;49.316;8.558;2023-11-19T04:40:18;100175.38;;;11.43;100.00
44457;BME280;30159;49.316;8.558;2023-11-19T04:42:47;100143.31;;;11.36;100.00
44457;BME280;30159;49.316;8.558;2023-11-19T04:45:15;100168.59;;;11.46;100.00
44457;BME280;30159;49.316;8.558;2023-11-19T04:47:42;100159.81;;;11.35;100.00
44457;BME280;30159;49.316;8.558;2023-11-19T04:50:09;100162.38;;;11.45;100.00
44457;BME280;30159;49.316;8.558;2023-11-19T04:52:37;100147.41;;;11.34;100.00
44457;BME280;30159;49.316;8.558;2023-11-19T04:55:06;100140.88;;;11.40;100.00
44457;BME280;30159;49.316;8.558;2023-11-19T04:57:32;100150.91;;;11.53;100.00
44457;BME280;30159;49.316;8.558;2023-11-19T04:59:59;100156.75;;;11.60;100.00
44457;BME280;30159;49.316;8.558;2023-11-19T05:02:27;100172.97;;;11.60;100.00
44457;BME280;30159;49.316;8.558;2023-11-19T05:04:53;100151.75;;;11.54;100.00
44457;BME280;30159;49.316;8.558;2023-11-19T05:07:20;100154.66;;;11.57;100.00
44457;BME280;30159;49.316;8.558;2023-11-19T05:09:47;100137.94;;;11.55;100.00
44457;BME280;30159;49.316;8.558;2023-11-19T05:12:13;100153.41;;;11.69;100.00
44457;BME280;30159;49.316;8.558;2023-11-19T05:14:40;100156.19;;;11.64;100.00
44457;BME280;30159;49.316;8.558;2023-11-19T05:17:13;100142.53;;;11.55;100.00
44457;BME280;30159;49.316;8.558;2023-11-19T05:19:41;100158.59;;;11.65;100.00
44457;BME280;30159;49.316;8.558;2023-11-19T05:22:07;100131.44;;;11.56;100.00
44457;BME280;30159;49.316;8.558;2023-11-19T05:24:34;100144.78;;;11.67;100.00
44457;BME280;30159;49.316;8.558;2023-11-19T05:27:01;100146.53;;;11.76;100.00
44457;BME280;30159;49.316;8.558;2023-11-19T05:29:27;100149.84;;;11.73;100.00
44457;BME280;30159;49.316;8.558;2023-11-19T05:31:54;100150.88;;;11.77;100.00
44457;BME280;30159;49.316;8.558;2023-11-19T05:34:21;100143.03;;;11.76;100.00
44457;BME280;30159;49.316;8.558;2023-11-19T05:36:49;100149.47;;;11.80;100.00
44457;BME280;30159;49.316;8.558;2023-11-19T05:39:16;100122.59;;;11.70;100.00
44457;BME280;30159;49.316;8.558;2023-11-19T05:41:43;100147.28;;;11.82;100.00
44457;BME280;30159;49.316;8.558;2023-11-19T05:44:10;100127.44;;;11.73;100.00
44457;BME280;30159;49.316;8.558;2023-11-19T05:46:36;100149.47;;;11.80;100.00
44457;BME280;30159;49.316;8.558;2023-11-19T05:49:07;100148.88;;;11.83;100.00
44457;BME280;30159;49.316;8.558;2023-11-19T05:51:36;100152.69;;;11.82;100.00
44457;BME280;30159;49.316;8.558;2023-11-19T05:54:07;100139.38;;;11.86;100.00
44457;BME280;30159;49.316;8.558;2023-11-19T05:56:35;100137.88;;;11.79;100.00
44457;BME280;30159;49.316;8.558;2023-11-19T05:59:01;100128.41;;;11.77;100.00
44457;BME280;30159;49.316;8.558;2023-11-19T06:01:32;100123.63;;;11.74;100.00
44457;BME280;30159;49.316;8.558;2023-11-19T06:03:58;100107.66;;;11.58;100.00
44457;BME280;30159;49.316;8.558;2023-11-19T06:06:26;100111.34;;;11.63;100.00
44457;BME280;30159;49.316;8.558;2023-11-19T06:08:53;100113.41;;;11.71;100.00
44457;BME280;30159;49.316;8.558;2023-11-19T06:11:21;100129.31;;;11.72;100.00
44457;BME280;30159;49.316;8.558;2023-11-19T06:13:48;100122.81;;;11.73;100.00
44457;BME280;30159;49.316;8.558;2023-11-19T06:16:16;100079.22;;;11.42;100.00
44457;BME280;30159;49.316;8.558;2023-11-19T06:18:42;100136.25;;;11.78;100.00
44457;BME280;30159;49.316;8.558;2023-11-19T06:21:09;100146.13;;;11.88;100.00
44457;BME280;30159;49.316;8.558;2023-11-19T06:23:36;100144.72;;;11.91;100.00
44457;BME280;30159;49.316;8.558;2023-11-19T06:26:03;100147.06;;;11.97;100.00
44457;BME280;30159;49.316;8.558;2023-11-19T06:28:31;100139.97;;;12.01;100.00
44457;BME280;30159;49.316;8.558;2023-11-19T06:30:58;100155.59;;;12.05;100.00
44457;BME280;30159;49.316;8.558;2023-11-19T06:33:25;100151.22;;;12.09;100.00
44457;BME280;30159;49.316;8.558;2023-11-19T06:35:52;100148.22;;;12.10;100.00
44457;BME280;30159;49.316;8.558;2023-11-19T06:38:20;100154.84;;;12.18;100.00
44457;BME280;30159;49.316;8.558;2023-11-19T06:40:46;100154.84;;;12.18;100.00
44457;BME280;30159;49.316;8.558;2023-11-19T06:43:13;100145.72;;;12.14;100.00
44457;BME280;30159;49.316;8.558;2023-11-19T06:45:42;100148.13;;;12.15;100.00
44457;BME280;30159;49.316;8.558;2023-11-19T06:48:08;100132.56;;;12.07;100.00
44457;BME280;30159;49.316;8.558;2023-11-19T06:50:35;100151.47;;;12.26;100.00
44457;BME280;30159;49.316;8.558;2023-11-19T06:53:01;100147.84;;;12.17;100.00
44457;BME280;30159;49.316;8.558;2023-11-19T06:55:28;100147.53;;;12.18;100.00
44457;BME280;30159;49.316;8.558;2023-11-19T06:57:55;100151.53;;;12.21;100.00
44457;BME280;30159;49.316;8.558;2023-11-19T07:00:22;100160.38;;;12.27;100.00
44457;BME280;30159;49.316;8.558;2023-11-19T07:02:50;100151.84;;;12.19;100.00
44457;BME280;30159;49.316;8.558;2023-11-19T07:05:17;100167.09;;;12.29;100.00
44457;BME280;30159;49.316;8.558;2023-11-19T07:07:44;100173.81;;;12.32;100.00
44457;BME280;30159;49.316;8.558;2023-11-19T07:10:12;100175.72;;;12.31;100.00
44457;BME280;30159;49.316;8.558;2023-11-19T07:12:38;100176.13;;;12.38;100.00
44457;BME280;30159;49.316;8.558;2023-11-19T07:15:06;100169.09;;;12.37;100.00
44457;BME280;30159;49.316;8.558;2023-11-19T07:17:34;100173.94;;;12.40;100.00
44457;BME280;30159;49.316;8.558;2023-11-19T07:20:03;100173.34;;;12.43;100.00
44457;BME280;30159;49.316;8.558;2023-11-19T07:22:31;100178.06;;;12.38;100.00
44457;BME280;30159;49.316;8.558;2023-11-19T07:24:58;100182.56;;;12.42;100.00
44457;BME280;30159;49.316;8.558;2023-11-19T07:27:24;100197.59;;;12.49;100.00
44457;BME280;30159;49.316;8.558;2023-11-19T07:29:51;100198.63;;;12.53;100.00
44457;BME280;30159;49.316;8.558;2023-11-19T07:32:17;100147.75;;;12.22;100.00
44457;BME280;30159;49.316;8.558;2023-11-19T07:34:44;100199.00;;;12.46;100.00
44457;BME280;30159;49.316;8.558;2023-11-19T07:37:12;100203.50;;;12.51;100.00
44457;BME280;30159;49.316;8.558;2023-11-19T07:39:39;100211.13;;;12.49;100.00
44457;BME280;30159;49.316;8.558;2023-11-19T07:42:06;100220.44;;;12.42;100.00
44457;BME280;30159;49.316;8.558;2023-11-19T07:44:34;100207.19;;;12.41;100.00
44457;BME280;30159;49.316;8.558;2023-11-19T07:47:02;100218.94;;;12.50;100.00
44457;BME280;30159;49.316;8.558;2023-11-19T07:49:28;100217.25;;;12.54;100.00
44457;BME280;30159;49.316;8.558;2023-11-19T07:51:56;100211.94;;;12.63;100.00
44457;BME280;30159;49.316;8.558;2023-11-19T07:54:24;100216.06;;;12.60;100.00
44457;BME280;30159;49.316;8.558;2023-11-19T07:56:50;100208.81;;;12.56;100.00
44457;BME280;30159;49.316;8.558;2023-11-19T07:59:17;100213.56;;;12.64;100.00
44457;BME280;30159;49.316;8.558;2023-11-19T08:01:44;100183.97;;;12.54;100.00
44457;BME280;30159;49.316;8.558;2023-11-19T08:04:10;100215.16;;;12.65;100.00
44457;BME280;30159;49.316;8.558;2023-11-19T08:06:37;100206.53;;;12.63;100.00
44457;BME280;30159;49.316;8.558;2023-11-19T08:09:04;100208.66;;;12.66;100.00
44457;BME280;30159;49.316;8.558;2023-11-19T08:11:33;100190.63;;;12.61;100.00
44457;BME280;30159;49.316;8.558;2023-11-19T08:13:59;100207.47;;;12.72;100.00
44457;BME280;30159;49.316;8.558;2023-11-19T08:16:26;100213.88;;;12.76;100.00
44457;BME280;30159;49.316;8.558;2023-11-19T08:18:53;100205.78;;;12.76;100.00
44457;BME280;30159;49.316;8.558;2023-11-19T08:21:19;100190.03;;;12.78;100.00
44457;BME280;30159;49.316;8.558;2023-11-19T08:23:48;100205.91;;;12.99;100.00
44457;BME280;30159;49.316;8.558;2023-11-19T08:26:15;100215.50;;;12.91;100.00
44457;BME280;30159;49.316;8.558;2023-11-19T08:28:43;100206.81;;;12.94;100.00
44457;BME280;30159;49.316;8.558;2023-11-19T08:31:09;100202.78;;;12.92;100.00
44457;BME280;30159;49.316;8.558;2023-11-19T08:33:36;100198.88;;;12.98;100.00
44457;BME280;30159;49.316;8.558;2023-11-19T08:36:03;100196.47;;;12.96;100.00
44457;BME280;30159;49.316;8.558;2023-11-19T08:38:30;100204.28;;;12.98;100.00
44457;BME280;30159;49.316;8.558;2023-11-19T08:40:57;100185.44;;;12.93;100.00
44457;BME280;30159;49.316;8.558;2023-11-19T08:43:26;100206.81;;;13.08;100.00
44457;BME280;30159;49.316;8.558;2023-11-19T08:45:54;100206.81;;;13.08;100.00
44457;BME280;30159;49.316;8.558;2023-11-19T08:48:21;100214.03;;;13.13;100.00
44457;BME280;30159;49.316;8.558;2023-11-19T08:50:47;100209.31;;;13.18;100.00
44457;BME280;30159;49.316;8.558;2023-11-19T08:53:14;100186.25;;;13.07;100.00
44457;BME280;30159;49.316;8.558;2023-11-19T08:55:40;100213.31;;;13.21;100.00
44457;BME280;30159;49.316;8.558;2023-11-19T08:58:07;100187.13;;;13.02;100.00
44457;BME280;30159;49.316;8.558;2023-11-19T09:00:34;100192.25;;;13.04;100.00
44457;BME280;30159;49.316;8.558;2023-11-19T09:03:02;100205.91;;;13.13;100.00
44457;BME280;30159;49.316;8.558;2023-11-19T09:05:29;100206.09;;;13.16;100.00
44457;BME280;30159;49.316;8.558;2023-11-19T09:07:55;100210.94;;;13.33;100.00
44457;BME280;30159;49.316;8.558;2023-11-19T09:10:22;100222.25;;;13.49;100.00
44457;BME280;30159;49.316;8.558;2023-11-19T09:12:49;100223.53;;;13.65;100.00
44457;BME280;30159;49.316;8.558;2023-11-19T09:15:15;100193.06;;;13.46;100.00
44457;BME280;30159;49.316;8.558;2023-11-19T09:17:42;100224.78;;;13.45;100.00
44457;BME280;30159;49.316;8.558;2023-11-19T09:20:11;100215.16;;;13.39;100.00
44457;BME280;30159;49.316;8.558;2023-11-19T09:22:40;100230.50;;;13.44;100.00
44457;BME280;30159;49.316;8.558;2023-11-19T09:25:07;100226.97;;;13.57;100.00
44457;BME280;30159;49.316;8.558;2023-11-19T09:27:34;100229.56;;;13.62;100.00
44457;BME280;30159;49.316;8.558;2023-11-19T09:30:01;100231.38;;;13.53;100.00
44457;BME280;30159;49.316;8.558;2023-11-19T09:32:29;100220.16;;;13.46;100.00
44457;BME280;30159;49.316;8.558;2023-11-19T09:34:55;100213.22;;;13.40;100.00
44457;BME280;30159;49.316;8.558;2023-11-19T09:37:23;100234.91;;;13.40;100.00
44457;BME280;30159;49.316;8.558;2023-11-19T09:39:50;100219.53;;;13.49;100.00
44457;BME280;30159;49.316;8.558;2023-11-19T09:42:17;100192.44;;;13.49;100.00
44457;BME280;30159;49.316;8.558;2023-11-19T09:44:43;100204.84;;;13.78;100.00
44457;BME280;30159;49.316;8.558;2023-11-19T09:47:11;100210.91;;;13.97;100.00
44457;BME280;30159;49.316;8.558;2023-11-19T09:49:38;100175.09;;;13.86;100.00
44457;BME280;30159;49.316;8.558;2023-11-19T09:52:05;100219.38;;;14.18;100.00
44457;BME280;30159;49.316;8.558;2023-11-19T09:54:34;100220.16;;;14.19;100.00
44457;BME280;30159;49.316;8.558;2023-11-19T09:57:01;100180.97;;;14.02;100.00
44457;BME280;30159;49.316;8.558;2023-11-19T09:59:29;100188.63;;;14.23;100.00
44457;BME280;30159;49.316;8.558;2023-11-19T10:01:56;100221.63;;;14.47;100.00
44457;BME280;30159;49.316;8.558;2023-11-19T10:04:23;100222.41;;;14.62;100.00
44457;BME280;30159;49.316;8.558;2023-11-19T10:06:51;100226.94;;;14.75;100.00
44457;BME280;30159;49.316;8.558;2023-11-19T10:09:18;100227.13;;;14.79;100.00
44457;BME280;30159;49.316;8.558;2023-11-19T10:11:46;100225.06;;;14.84;100.00
44457;BME280;30159;49.316;8.558;2023-11-19T10:14:14;100108.22;;;14.04;100.00
44457;BME280;30159;49.316;8.558;2023-11-19T10:16:41;100219.06;;;14.65;100.00
44457;BME280;30159;49.316;8.558;2023-11-19T10:19:09;100221.13;;;14.59;100.00
44457;BME280;30159;49.316;8.558;2023-11-19T10:21:38;100206.97;;;14.48;100.00
44457;BME280;30159;49.316;8.558;2023-11-19T10:24:05;100210.91;;;14.42;100.00
44457;BME280;30159;49.316;8.558;2023-11-19T10:26:32;100194.66;;;14.20;100.00
44457;BME280;30159;49.316;8.558;2023-11-19T10:29:01;100213.63;;;14.42;100.00
44457;BME280;30159;49.316;8.558;2023-11-19T10:31:27;100213.25;;;14.35;100.00
44457;BME280;30159;49.316;8.558;2023-11-19T10:33:54;100215.69;;;14.37;100.00
44457;BME280;30159;49.316;8.558;2023-11-19T10:36:21;100211.03;;;14.37;100.00
44457;BME280;30159;49.316;8.558;2023-11-19T10:38:53;100200.91;;;14.51;100.00
44457;BME280;30159;49.316;8.558;2023-11-19T10:41:27;100146.19;;;14.27;100.00
44457;BME280;30159;49.316;8.558;2023-11-19T10:43:53;100192.19;;;14.54;100.00
44457;BME280;30159;49.316;8.558;2023-11-19T10:46:21;100196.59;;;14.50;100.00
44457;BME280;30159;49.316;8.558;2023-11-19T10:48:48;100206.03;;;14.53;100.00
44457;BME280;30159;49.316;8.558;2023-11-19T10:51:19;100188.72;;;14.63;100.00
44457;BME280;30159;49.316;8.558;2023-11-19T10:53:48;100192.78;;;14.74;100.00
44457;BME280;30159;49.316;8.558;2023-11-19T10:56:16;100182.13;;;14.86;100.00
44457;BME280;30159;49.316;8.558;2023-11-19T10:58:45;100197.56;;;15.17;100.00
44457;BME280;30159;49.316;8.558;2023-11-19T11:01:13;100170.25;;;15.13;100.00
44457;BME280;30159;49.316;8.558;2023-11-19T11:03:44;100195.41;;;15.36;100.00
44457;BME280;30159;49.316;8.558;2023-11-19T11:06:12;100184.53;;;15.45;100.00
44457;BME280;30159;49.316;8.558;2023-11-19T11:08:39;100179.84;;;15.28;100.00
44457;BME280;30159;49.316;8.558;2023-11-19T11:11:07;100175.53;;;15.36;100.00
44457;BME280;30159;49.316;8.558;2023-11-19T11:13:37;100176.38;;;15.36;100.00
44457;BME280;30159;49.316;8.558;2023-11-19T11:16:06;100169.66;;;15.34;100.00
44457;BME280;30159;49.316;8.558;2023-11-19T11:18:33;100176.50;;;15.31;100.00
44457;BME280;30159;49.316;8.558;2023-11-19T11:21:05;100181.50;;;15.55;100.00
44457;BME280;30159;49.316;8.558;2023-11-19T11:24:06;100177.03;;;15.68;100.00
44457;BME280;30159;49.316;8.558;2023-11-19T11:26:53;100180.13;;;15.84;100.00
44457;BME280;30159;49.316;8.558;2023-11-19T11:29:26;100176.09;;;15.99;100.00
44457;BME280;30159;49.316;8.558;2023-11-19T11:32:04;100174.69;;;15.93;100.00
44457;BME280;30159;49.316;8.558;2023-11-19T11:34:49;100175.16;;;15.77;100.00
44457;BME280;30159;49.316;8.558;2023-11-19T11:37:26;100171.47;;;15.82;100.00
44457;BME280;30159;49.316;8.558;2023-11-19T11:39:57;100136.56;;;15.49;100.00
44457;BME280;30159;49.316;8.558;2023-11-19T11:42:35;100157.41;;;15.71;100.00
44457;BME280;30159;49.316;8.558;2023-11-19T11:45:03;100148.56;;;15.57;100.00
44457;BME280;30159;49.316;8.558;2023-11-19T11:50:54;100056.00;;;15.27;100.00
44457;BME280;30159;49.316;8.558;2023-11-19T11:53:23;100069.25;;;15.37;100.00
44457;BME280;30159;49.316;8.558;2023-11-19T11:56:00;100133.22;;;15.70;100.00
44457;BME280;30159;49.316;8.558;2023-11-19T11:58:32;100121.56;;;15.69;100.00
44457;BME280;30159;49.316;8.558;2023-11-19T12:01:02;100135.50;;;15.76;100.00
44457;BME280;30159;49.316;8.558;2023-11-19T12:03:31;100109.22;;;15.63;100.00
44457;BME280;30159;49.316;8.558;2023-11-19T12:05:58;100129.38;;;15.62;100.00
44457;BME280;30159;49.316;8.558;2023-11-19T12:08:28;100122.03;;;15.54;100.00
44457;BME280;30159;49.316;8.558;2023-11-19T12:10:57;100137.69;;;15.39;100.00
44457;BME280;30159;49.316;8.558;2023-11-19T12:13:29;100135.72;;;15.31;100.00
44457;BME280;30159;49.316;8.558;2023-11-19T12:16:10;100141.47;;;15.21;100.00
44457;BME280;30159;49.316;8.558;2023-11-19T12:18:39;100138.75;;;15.21;100.00
44457;BME280;30159;49.316;8.558;2023-11-19T12:21:06;100133.81;;;15.23;100.00
44457;BME280;30159;49.316;8.558;2023-11-19T12:23:44;100138.19;;;15.50;100.00
44457;BME280;30159;49.316;8.558;2023-11-19T12:26:21;100134.06;;;15.88;100.00
44457;BME280;30159;49.316;8.558;2023-11-19T12:29:00;100124.41;;;16.16;100.00
44457;BME280;30159;49.316;8.558;2023-11-19T12:31:29;100114.47;;;16.12;100.00
44457;BME280;30159;49.316;8.558;2023-11-19T12:33:55;100119.44;;;16.18;100.00
44457;BME280;30159;49.316;8.558;2023-11-19T12:36:22;100120.41;;;16.05;100.00
44457;BME280;30159;49.316;8.558;2023-11-19T12:38:50;99981.66;;;15.06;100.00
44457;BME280;30159;49.316;8.558;2023-11-19T12:41:17;100108.56;;;15.66;100.00
44457;BME280;30159;49.316;8.558;2023-11-19T12:43:47;100109.56;;;15.53;100.00
44457;BME280;30159;49.316;8.558;2023-11-19T12:46:18;100092.09;;;15.28;100.00
44457;BME280;30159;49.316;8.558;2023-11-19T12:48:45;100104.09;;;15.35;100.00